createdAt,value
2019-05-19T00:01:02.449Z,85.27
2019-05-19T00:03:32.109Z,85.31
2019-05-19T00:06:01.926Z,84.91
2019-05-19T00:08:31.627Z,85.22
2019-05-19T00:11:07.230Z,85.35
2019-05-19T00:13:36.865Z,85.08
2019-05-19T00:16:06.681Z,85.16
2019-05-19T00:18:36.500Z,85.21
2019-05-19T00:21:08.467Z,84.81
2019-05-19T00:23:38.116Z,85.02
2019-05-19T00:26:07.898Z,84.50
2019-05-19T00:28:37.545Z,84.82
2019-05-19T00:31:07.179Z,84.86
2019-05-19T00:33:36.860Z,85.07
2019-05-19T00:36:06.680Z,85.09
2019-05-19T00:38:38.750Z,85.20
2019-05-19T00:41:08.914Z,85.20
2019-05-19T00:43:39.325Z,85.44
2019-05-19T00:46:09.058Z,85.28
2019-05-19T00:48:38.719Z,85.51
2019-05-19T00:51:08.882Z,85.22
2019-05-19T00:53:38.519Z,85.09
2019-05-19T00:56:08.376Z,85.23
2019-05-19T00:58:38.517Z,85.29
2019-05-19T01:01:08.277Z,85.35
2019-05-19T01:03:37.984Z,85.64
2019-05-19T01:06:08.194Z,85.84
2019-05-19T01:08:37.843Z,86.02
2019-05-19T01:11:07.630Z,86.25
2019-05-19T01:13:38.023Z,86.01
2019-05-19T01:16:07.661Z,86.18
2019-05-19T01:18:37.910Z,86.20
2019-05-19T01:21:07.706Z,86.15
2019-05-19T01:23:37.355Z,86.30
2019-05-19T01:26:07.038Z,86.74
2019-05-19T01:28:36.686Z,86.83
2019-05-19T01:31:07.936Z,87.00
2019-05-19T01:33:37.994Z,87.19
2019-05-19T01:36:07.715Z,87.12
2019-05-19T01:38:37.356Z,87.27
2019-05-19T01:41:07.044Z,87.19
2019-05-19T01:43:37.499Z,87.30
2019-05-19T01:46:07.178Z,87.22
2019-05-19T01:48:37.372Z,86.90
2019-05-19T01:51:06.991Z,87.10
2019-05-19T01:53:36.812Z,87.40
2019-05-19T01:56:07.349Z,87.36
2019-05-19T01:58:37.947Z,87.42
2019-05-19T02:01:07.987Z,87.58
2019-05-19T02:03:38.034Z,87.68
2019-05-19T02:06:07.755Z,87.73
2019-05-19T02:08:38.516Z,87.65
2019-05-19T02:11:08.311Z,87.63
2019-05-19T02:13:37.945Z,87.44
2019-05-19T02:16:07.725Z,87.46
2019-05-19T02:18:37.609Z,87.70
2019-05-19T02:21:07.375Z,87.53
2019-05-19T02:23:37.062Z,87.66
2019-05-19T02:26:06.818Z,87.50
2019-05-19T02:28:37.115Z,87.68
2019-05-19T02:31:07.137Z,87.83
2019-05-19T02:33:36.834Z,87.95
2019-05-19T02:36:06.474Z,87.99
2019-05-19T02:38:36.138Z,88.24
2019-05-19T02:41:06.533Z,88.11
2019-05-19T02:43:37.993Z,88.19
2019-05-19T02:46:08.002Z,87.97
2019-05-19T02:48:39.854Z,87.62
2019-05-19T02:51:12.001Z,87.77
2019-05-19T02:53:43.589Z,87.73
2019-05-19T02:56:14.395Z,87.74
2019-05-19T02:58:44.930Z,87.63
2019-05-19T03:01:14.573Z,87.70
2019-05-19T03:03:44.344Z,87.77
2019-05-19T03:06:14.226Z,87.93
2019-05-19T03:08:43.950Z,88.10
2019-05-19T03:11:13.605Z,88.09
2019-05-19T03:13:44.015Z,88.19
2019-05-19T03:16:13.780Z,88.08
2019-05-19T03:18:43.448Z,88.07
2019-05-19T03:21:13.097Z,88.32
2019-05-19T03:23:42.758Z,88.28
2019-05-19T03:26:12.427Z,88.21
2019-05-19T03:28:42.071Z,88.30
2019-05-19T03:31:13.369Z,88.37
2019-05-19T03:33:53.864Z,88.14
2019-05-19T03:36:23.547Z,88.10
2019-05-19T03:38:53.239Z,88.07
2019-05-19T03:41:23.001Z,87.95
2019-05-19T03:43:52.645Z,87.89
2019-05-19T03:46:25.143Z,87.95
2019-05-19T03:48:55.582Z,87.90
2019-05-19T03:51:30.745Z,87.88
2019-05-19T03:53:56.670Z,87.70
2019-05-19T03:56:26.356Z,87.76
2019-05-19T03:58:55.985Z,87.81
2019-05-19T04:01:25.637Z,87.72
2019-05-19T04:03:55.311Z,87.80
2019-05-19T04:06:25.850Z,87.76
2019-05-19T04:08:55.964Z,87.72
2019-05-19T04:11:25.638Z,87.76
2019-05-19T04:13:58.444Z,87.61
2019-05-19T04:16:28.092Z,87.75
2019-05-19T04:18:57.866Z,87.79
2019-05-19T04:21:38.823Z,87.71
2019-05-19T04:24:02.051Z,87.68
2019-05-19T04:26:31.745Z,87.48
2019-05-19T04:29:01.465Z,86.98
2019-05-19T04:31:31.163Z,86.96
2019-05-19T04:34:00.942Z,87.11
2019-05-19T04:36:30.678Z,87.10
2019-05-19T04:39:00.321Z,87.16
2019-05-19T04:41:29.981Z,87.49
2019-05-19T04:43:59.627Z,87.70
2019-05-19T04:46:29.261Z,87.80
2019-05-19T04:48:58.938Z,88.08
2019-05-19T04:51:28.768Z,87.88
2019-05-19T04:53:58.438Z,87.80
2019-05-19T04:56:28.812Z,88.08
2019-05-19T04:58:58.451Z,88.16
2019-05-19T05:01:30.127Z,88.21
2019-05-19T05:03:59.894Z,88.45
2019-05-19T05:06:29.641Z,88.44
2019-05-19T05:08:59.291Z,88.47
2019-05-19T05:11:29.000Z,88.23
2019-05-19T05:13:58.621Z,88.20
2019-05-19T05:16:28.258Z,88.20
2019-05-19T05:18:58.403Z,88.01
2019-05-19T05:21:28.203Z,88.01
2019-05-19T05:23:58.615Z,87.97
2019-05-19T05:26:28.312Z,88.12
2019-05-19T05:28:57.934Z,88.06
2019-05-19T05:31:27.739Z,88.10
2019-05-19T05:33:57.451Z,88.29
2019-05-19T05:36:27.926Z,88.23
2019-05-19T05:38:57.642Z,88.37
2019-05-19T05:41:27.295Z,88.53
2019-05-19T05:43:59.994Z,88.55
2019-05-19T05:46:29.659Z,88.67
2019-05-19T05:48:59.492Z,88.79
2019-05-19T05:51:29.137Z,88.73
2019-05-19T05:53:59.577Z,88.60
2019-05-19T05:56:29.522Z,88.43
2019-05-19T05:58:59.242Z,88.53
2019-05-19T06:01:28.986Z,88.58
2019-05-19T06:03:59.114Z,88.43
2019-05-19T06:06:28.822Z,88.54
2019-05-19T06:08:58.459Z,88.72
2019-05-19T06:11:28.126Z,88.87
2019-05-19T06:13:58.135Z,89.08
2019-05-19T06:16:27.842Z,89.12
2019-05-19T06:18:57.518Z,89.03
2019-05-19T06:21:27.169Z,89.02
2019-05-19T06:23:56.864Z,89.06
2019-05-19T06:26:26.822Z,89.12
2019-05-19T06:28:56.541Z,89.18
2019-05-19T06:31:26.195Z,89.02
2019-05-19T06:33:55.961Z,88.85
2019-05-19T06:36:25.675Z,88.87
2019-05-19T06:38:55.328Z,88.99
2019-05-19T06:41:25.014Z,89.21
2019-05-19T06:43:54.718Z,89.40
2019-05-19T06:46:24.380Z,89.55
2019-05-19T06:48:54.652Z,89.71
2019-05-19T06:51:25.838Z,89.77
2019-05-19T06:54:18.597Z,89.74
2019-05-19T06:56:48.537Z,89.67
2019-05-19T06:59:18.163Z,89.75
2019-05-19T07:01:47.828Z,89.73
2019-05-19T07:04:17.486Z,89.70
2019-05-19T07:06:48.565Z,89.63
2019-05-19T07:09:18.322Z,89.57
2019-05-19T07:11:47.963Z,89.63
2019-05-19T07:14:17.703Z,89.56
2019-05-19T07:16:47.376Z,89.50
2019-05-19T07:19:17.498Z,89.64
2019-05-19T07:21:47.963Z,89.69
2019-05-19T07:24:19.473Z,89.79
2019-05-19T07:26:49.231Z,89.68
2019-05-19T07:29:18.962Z,89.57
2019-05-19T07:31:48.874Z,89.38
2019-05-19T07:34:18.673Z,89.29
2019-05-19T07:36:48.331Z,89.35
2019-05-19T07:39:18.257Z,89.37
2019-05-19T07:41:47.877Z,89.28
2019-05-19T07:44:17.575Z,89.13
2019-05-19T07:46:49.645Z,89.17
2019-05-19T07:49:19.461Z,89.10
2019-05-19T07:51:52.257Z,89.07
2019-05-19T07:54:21.954Z,88.93
2019-05-19T07:56:51.797Z,88.98
2019-05-19T07:59:22.515Z,89.09
2019-05-19T08:01:52.463Z,89.16
2019-05-19T08:04:24.880Z,89.14
2019-05-19T08:06:54.517Z,89.14
2019-05-19T08:09:24.241Z,89.19
2019-05-19T08:11:58.861Z,89.30
2019-05-19T08:14:31.613Z,89.46
2019-05-19T08:17:01.210Z,89.61
2019-05-19T08:19:30.833Z,89.79
2019-05-19T08:22:00.882Z,89.90
2019-05-19T08:24:30.589Z,89.94
2019-05-19T08:27:00.465Z,89.86
2019-05-19T08:29:33.638Z,89.94
2019-05-19T08:32:07.494Z,89.95
2019-05-19T08:34:37.214Z,89.64
2019-05-19T08:37:06.929Z,89.49
2019-05-19T08:39:36.586Z,89.40
2019-05-19T08:42:06.269Z,89.29
2019-05-19T08:44:35.996Z,89.17
2019-05-19T08:47:05.696Z,89.08
2019-05-19T08:49:36.242Z,89.05
2019-05-19T08:52:06.104Z,89.05
2019-05-19T08:54:35.942Z,88.94
2019-05-19T08:57:05.570Z,88.90
2019-05-19T08:59:35.205Z,88.90
2019-05-19T09:02:04.979Z,88.95
2019-05-19T09:04:34.702Z,88.88
2019-05-19T09:07:04.299Z,88.85
2019-05-19T09:09:33.989Z,88.77
2019-05-19T09:12:03.740Z,88.66
2019-05-19T09:14:33.375Z,88.44
2019-05-19T09:17:03.349Z,88.58
2019-05-19T09:19:33.157Z,88.48
2019-05-19T09:22:02.803Z,88.33
2019-05-19T09:24:32.446Z,88.22
2019-05-19T09:27:02.091Z,88.24
2019-05-19T09:29:31.820Z,88.38
2019-05-19T09:32:01.551Z,88.42
2019-05-19T09:34:31.457Z,88.54
2019-05-19T09:37:01.082Z,88.58
2019-05-19T09:39:31.052Z,88.50
2019-05-19T09:42:02.468Z,88.26
2019-05-19T09:44:32.063Z,88.20
2019-05-19T09:47:01.723Z,88.27
2019-05-19T09:49:35.278Z,88.16
2019-05-19T09:52:06.849Z,88.03
2019-05-19T09:54:44.768Z,88.00
2019-05-19T09:57:09.036Z,87.75
2019-05-19T09:59:39.526Z,87.81
2019-05-19T10:02:09.193Z,87.76
2019-05-19T10:04:38.854Z,87.60
2019-05-19T10:07:10.665Z,87.78
2019-05-19T10:09:58.196Z,87.50
2019-05-19T10:12:28.266Z,87.35
2019-05-19T10:18:28.845Z,87.02
2019-05-19T10:21:01.454Z,86.98
2019-05-19T10:23:31.230Z,86.92
2019-05-19T10:26:02.562Z,86.99
2019-05-19T10:28:32.226Z,87.08
2019-05-19T10:31:01.906Z,86.93
2019-05-19T10:33:31.749Z,87.09
2019-05-19T10:36:01.391Z,87.36
2019-05-19T10:38:31.104Z,87.19
2019-05-19T10:41:00.774Z,87.37
2019-05-19T10:43:30.416Z,87.18
2019-05-19T10:46:00.230Z,86.99
2019-05-19T10:48:36.116Z,86.64
2019-05-19T10:51:05.760Z,86.67
2019-05-19T10:53:35.470Z,86.85
2019-05-19T10:56:11.578Z,86.91
2019-05-19T10:58:41.271Z,86.78
2019-05-19T11:01:17.647Z,86.72
2019-05-19T11:04:00.013Z,86.90
2019-05-19T11:06:29.821Z,86.67
2019-05-19T11:08:59.610Z,86.25
2019-05-19T11:11:41.463Z,86.00
2019-05-19T11:14:29.869Z,86.17
2019-05-19T11:17:12.642Z,86.18
2019-05-19T11:19:49.695Z,86.21
2019-05-19T11:22:25.050Z,85.92
2019-05-19T11:31:03.145Z,85.25
2019-05-19T11:36:55.858Z,85.16
2019-05-19T11:39:26.657Z,84.80
2019-05-19T11:41:58.236Z,85.05
2019-05-19T11:44:28.296Z,85.03
2019-05-19T11:46:59.133Z,84.87
2019-05-19T11:49:28.966Z,85.11
2019-05-19T11:51:58.807Z,85.28
2019-05-19T11:54:30.135Z,85.48
2019-05-19T11:57:04.721Z,85.46
2019-05-19T11:59:34.654Z,85.33
2019-05-19T12:02:05.690Z,85.10
2019-05-19T12:04:37.449Z,85.25
2019-05-19T12:07:07.173Z,85.24
2019-05-19T12:09:36.894Z,85.31
2019-05-19T12:12:06.528Z,85.33
2019-05-19T12:14:38.162Z,85.11
2019-05-19T12:17:08.126Z,85.23
2019-05-19T12:19:38.045Z,85.37
2019-05-19T12:22:07.721Z,85.60
2019-05-19T12:24:38.003Z,85.84
2019-05-19T12:27:07.664Z,86.24
2019-05-19T12:29:37.568Z,86.28
2019-05-19T12:32:07.292Z,86.42
2019-05-19T12:34:36.920Z,86.55
2019-05-19T12:37:06.588Z,86.71
2019-05-19T12:39:36.276Z,86.79
2019-05-19T12:42:05.909Z,86.85
2019-05-19T12:44:35.549Z,86.71
2019-05-19T12:47:05.362Z,86.75
2019-05-19T12:49:35.741Z,86.67
2019-05-19T12:52:05.377Z,86.77
2019-05-19T12:54:35.169Z,86.81
2019-05-19T12:57:06.465Z,86.91
2019-05-19T12:59:36.121Z,86.95
2019-05-19T13:02:05.836Z,87.15
2019-05-19T13:04:35.765Z,87.16
2019-05-19T13:07:08.702Z,87.16
2019-05-19T13:09:39.721Z,86.92
2019-05-19T13:12:09.648Z,86.81
2019-05-19T13:14:39.295Z,86.84
2019-05-19T13:17:09.091Z,86.98
2019-05-19T13:19:39.041Z,87.08
2019-05-19T13:22:08.830Z,87.07
2019-05-19T13:24:40.142Z,87.13
2019-05-19T13:27:09.876Z,87.08
2019-05-19T13:29:39.591Z,87.07
2019-05-19T13:32:09.357Z,86.98
2019-05-19T13:34:39.058Z,86.92
2019-05-19T13:37:08.714Z,87.04
2019-05-19T13:39:38.402Z,87.13
2019-05-19T13:42:08.097Z,87.11
2019-05-19T13:44:37.729Z,87.32
2019-05-19T13:47:07.427Z,87.49
2019-05-19T13:49:37.124Z,87.63
2019-05-19T13:52:07.033Z,87.43
2019-05-19T13:54:36.790Z,87.49
2019-05-19T13:57:12.176Z,87.71
2019-05-19T13:59:38.130Z,87.54
2019-05-19T14:02:07.820Z,87.30
2019-05-19T14:04:37.659Z,86.88
2019-05-19T14:07:08.648Z,86.44
2019-05-19T14:09:38.345Z,86.34
2019-05-19T14:12:07.984Z,86.17
2019-05-19T14:14:37.696Z,85.75
2019-05-19T14:17:07.414Z,85.64
2019-05-19T14:19:37.049Z,85.34
2019-05-19T14:22:06.794Z,85.33
2019-05-19T14:24:36.724Z,85.02
2019-05-19T14:27:06.368Z,84.68
2019-05-19T14:29:37.065Z,84.73
2019-05-19T14:32:07.165Z,84.26
2019-05-19T14:34:39.558Z,84.18
2019-05-19T14:37:09.184Z,84.01
2019-05-19T14:39:38.904Z,84.10
2019-05-19T14:42:10.202Z,84.23
2019-05-19T14:44:39.952Z,84.30
2019-05-19T14:47:09.651Z,84.02
2019-05-19T14:49:39.786Z,84.13
2019-05-19T14:52:10.154Z,83.82
2019-05-19T14:54:39.812Z,83.72
2019-05-19T14:57:09.452Z,83.61
2019-05-19T14:59:39.362Z,83.64
2019-05-19T15:02:09.057Z,83.65
2019-05-19T15:04:38.508Z,83.68
2019-05-19T15:07:08.137Z,83.83
2019-05-19T15:09:38.668Z,83.79
2019-05-19T15:12:08.311Z,83.68
2019-05-19T15:14:37.953Z,83.57
2019-05-19T15:17:07.791Z,83.82
2019-05-19T15:19:37.364Z,83.92
2019-05-19T15:22:07.008Z,83.71
2019-05-19T15:24:36.804Z,83.97
2019-05-19T15:27:06.462Z,84.13
2019-05-19T15:29:36.102Z,84.34
2019-05-19T15:32:05.767Z,84.41
2019-05-19T15:34:35.402Z,84.46
2019-05-19T15:37:05.292Z,84.03
2019-05-19T15:39:34.968Z,84.01
2019-05-19T15:42:04.621Z,84.14
2019-05-19T15:44:34.233Z,83.98
2019-05-19T15:47:04.040Z,83.30
2019-05-19T15:49:33.665Z,83.19
2019-05-19T15:52:05.386Z,83.03
2019-05-19T15:54:35.194Z,82.99
2019-05-19T15:57:04.910Z,82.75
2019-05-19T15:59:34.554Z,82.90
2019-05-19T16:02:04.341Z,83.23
2019-05-19T16:04:33.966Z,83.35
2019-05-19T16:07:05.145Z,83.28
2019-05-19T16:09:35.094Z,83.49
2019-05-19T16:12:04.769Z,83.69
2019-05-19T16:14:34.216Z,83.57
2019-05-19T16:17:06.383Z,83.63
2019-05-19T16:19:36.028Z,83.81
2019-05-19T16:22:05.678Z,84.03
2019-05-19T16:24:35.400Z,83.92
2019-05-19T16:27:05.057Z,84.19
2019-05-19T16:29:34.698Z,84.46
2019-05-19T16:32:04.486Z,84.68
2019-05-19T16:34:34.125Z,84.48
2019-05-19T16:37:03.941Z,84.49
2019-05-19T16:39:34.114Z,84.31
2019-05-19T16:42:03.840Z,84.34
2019-05-19T16:44:33.603Z,84.41
2019-05-19T16:47:03.342Z,84.35
2019-05-19T16:49:33.023Z,84.22
2019-05-19T16:52:02.768Z,84.20
2019-05-19T16:54:34.112Z,84.49
2019-05-19T16:57:03.755Z,84.68
2019-05-19T16:59:33.381Z,84.65
2019-05-19T17:02:03.145Z,84.76
2019-05-19T17:04:32.841Z,84.85
2019-05-19T17:07:05.837Z,84.86
2019-05-19T17:09:38.304Z,84.69
2019-05-19T17:12:10.433Z,84.61
2019-05-19T17:14:40.078Z,84.69
2019-05-19T17:17:09.800Z,84.62
2019-05-19T17:19:39.401Z,84.71
2019-05-19T17:22:09.036Z,84.70
2019-05-19T17:24:38.799Z,84.87
2019-05-19T17:27:10.122Z,85.08
2019-05-19T17:29:39.896Z,85.33
2019-05-19T17:32:09.740Z,85.46
2019-05-19T17:34:39.400Z,85.56
2019-05-19T17:37:09.047Z,85.57
2019-05-19T17:39:38.743Z,85.53
2019-05-19T17:42:08.392Z,85.53
2019-05-19T17:44:38.040Z,85.54
2019-05-19T17:47:07.738Z,85.57
2019-05-19T17:49:37.379Z,85.54
2019-05-19T17:52:07.079Z,85.68
2019-05-19T17:54:36.841Z,85.84
2019-05-19T17:57:06.727Z,85.77
2019-05-19T17:59:36.598Z,85.89
2019-05-19T18:02:06.529Z,85.85
2019-05-19T18:04:36.136Z,85.76
2019-05-19T18:07:05.800Z,85.86
2019-05-19T18:09:35.918Z,85.99
2019-05-19T18:12:05.633Z,86.08
2019-05-19T18:14:35.471Z,86.01
2019-05-19T18:17:05.161Z,86.15
2019-05-19T18:19:35.033Z,86.27
2019-05-19T18:22:04.750Z,86.32
2019-05-19T18:24:34.525Z,86.37
2019-05-19T18:27:04.654Z,86.39
2019-05-19T18:29:36.017Z,86.49
2019-05-19T18:32:05.815Z,86.40
2019-05-19T18:34:35.454Z,86.30
2019-05-19T18:37:05.151Z,86.41
2019-05-19T18:39:34.862Z,86.43
2019-05-19T18:45:46.350Z,86.41
2019-05-19T18:48:17.713Z,86.14
2019-05-19T18:50:48.967Z,86.19
2019-05-19T18:53:18.793Z,86.18
2019-05-19T18:55:48.507Z,86.22
2019-05-19T18:58:18.250Z,85.98
2019-05-19T19:00:48.111Z,85.98
2019-05-19T19:03:20.234Z,85.96
2019-05-19T19:05:51.736Z,85.95
2019-05-19T19:08:29.154Z,85.92
2019-05-19T19:10:58.928Z,86.02
2019-05-19T19:13:45.076Z,86.11
2019-05-19T19:16:11.061Z,86.17
2019-05-19T19:18:42.431Z,86.27
2019-05-19T19:21:12.221Z,86.32
2019-05-19T19:23:52.874Z,86.30
2019-05-19T19:26:24.571Z,86.30
2019-05-19T19:28:54.586Z,86.43
2019-05-19T19:31:24.695Z,86.40
2019-05-19T19:33:54.375Z,86.38
2019-05-19T19:36:24.494Z,86.45
2019-05-19T19:38:54.161Z,86.26
2019-05-19T19:41:23.817Z,86.21
2019-05-19T19:43:53.801Z,86.27
2019-05-19T19:46:25.090Z,86.47
2019-05-19T19:48:54.885Z,86.32
2019-05-19T19:51:24.545Z,86.34
2019-05-19T19:53:54.190Z,86.34
2019-05-19T19:56:23.838Z,86.29
2019-05-19T19:58:53.611Z,86.35
2019-05-19T20:01:23.241Z,86.21
2019-05-19T20:03:53.311Z,86.24
2019-05-19T20:06:23.000Z,86.26
2019-05-19T20:08:52.694Z,85.95
2019-05-19T20:11:22.341Z,86.15
2019-05-19T20:13:52.414Z,86.11
2019-05-19T20:16:29.001Z,86.35
2019-05-19T20:18:58.883Z,86.12
2019-05-19T20:21:28.571Z,86.21
2019-05-19T20:23:58.237Z,85.93
2019-05-19T20:26:30.977Z,86.04
2019-05-19T20:29:00.609Z,85.97
2019-05-19T20:31:31.533Z,85.71
2019-05-19T20:34:01.824Z,85.69
2019-05-19T20:36:31.470Z,85.84
2019-05-19T20:39:01.099Z,85.76
2019-05-19T20:41:30.843Z,85.81
2019-05-19T20:44:00.658Z,85.71
2019-05-19T20:46:30.338Z,85.28
2019-05-19T20:49:00.024Z,85.33
2019-05-19T20:51:31.338Z,85.33
2019-05-19T20:54:01.192Z,85.30
2019-05-19T20:56:30.978Z,85.38
2019-05-19T20:59:00.599Z,85.49
2019-05-19T21:01:31.756Z,85.45
2019-05-19T21:04:01.522Z,85.50
2019-05-19T21:06:31.166Z,85.69
2019-05-19T21:09:00.842Z,85.50
2019-05-19T21:11:30.503Z,85.32
2019-05-19T21:14:00.152Z,85.18
2019-05-19T21:16:29.945Z,84.72
2019-05-19T21:18:59.636Z,84.97
2019-05-19T21:21:29.282Z,84.67
2019-05-19T21:23:58.937Z,84.97
2019-05-19T21:26:28.599Z,85.06
2019-05-19T21:28:58.227Z,85.02
2019-05-19T21:31:27.866Z,84.84
2019-05-19T21:33:57.586Z,84.98
2019-05-19T21:36:27.236Z,84.94
2019-05-19T21:38:56.866Z,85.23
2019-05-19T21:41:26.574Z,85.28
2019-05-19T21:43:56.213Z,85.52
2019-05-19T21:46:25.855Z,85.35
2019-05-19T21:48:55.532Z,85.27
2019-05-19T21:51:25.171Z,85.47
2019-05-19T21:53:54.881Z,85.71
2019-05-19T21:56:24.562Z,86.00
2019-05-19T21:58:54.240Z,85.93
2019-05-19T22:01:24.269Z,85.75
2019-05-19T22:03:53.960Z,86.07
2019-05-19T22:06:25.259Z,86.09
2019-05-19T22:08:54.923Z,86.47
2019-05-19T22:11:24.622Z,86.45
2019-05-19T22:13:54.825Z,86.32
2019-05-19T22:16:24.463Z,86.27
2019-05-19T22:18:54.928Z,86.51
2019-05-19T22:21:24.566Z,86.42
2019-05-19T22:23:54.578Z,86.52
2019-05-19T22:26:24.262Z,86.62
2019-05-19T22:28:54.012Z,86.63
2019-05-19T22:31:36.302Z,86.71
2019-05-19T22:33:55.112Z,86.83
2019-05-19T22:36:24.778Z,86.69
2019-05-19T22:38:54.416Z,86.73
2019-05-19T22:41:26.543Z,86.67
2019-05-19T22:44:00.486Z,86.41
2019-05-19T22:46:30.183Z,86.47
2019-05-19T22:49:00.085Z,86.62
2019-05-19T22:51:29.760Z,86.78
2019-05-19T22:53:59.483Z,87.17
2019-05-19T22:56:29.129Z,87.25
2019-05-19T22:58:58.753Z,87.29
2019-05-19T23:01:28.475Z,87.40
2019-05-19T23:03:58.171Z,87.39
2019-05-19T23:06:27.804Z,87.44
2019-05-19T23:08:57.453Z,87.40
2019-05-19T23:11:27.154Z,87.04
2019-05-19T23:13:56.772Z,87.66
2019-05-19T23:16:26.687Z,87.70
2019-05-19T23:18:56.537Z,87.56
2019-05-19T23:21:26.190Z,87.68
2019-05-19T23:23:55.834Z,87.65
2019-05-19T23:26:25.618Z,87.68
2019-05-19T23:28:55.325Z,87.63
2019-05-19T23:31:24.960Z,87.82
2019-05-19T23:33:54.830Z,87.92
2019-05-19T23:36:24.473Z,88.01
2019-05-19T23:38:54.139Z,88.46
2019-05-19T23:41:24.102Z,88.32
2019-05-19T23:43:53.830Z,88.22
2019-05-19T23:46:23.492Z,88.10
2019-05-19T23:48:53.170Z,88.07
2019-05-19T23:51:23.075Z,88.06
2019-05-19T23:53:52.707Z,88.02
2019-05-19T23:56:22.442Z,88.37
2019-05-19T23:58:52.150Z,88.09
